Time;durP1;ratioP1;P1;durP2;ratioP2;P2;SDS_P1;SDS_P2;PMS_P1;PMS_P2;Temp;Humidity;BMP_temperature;BMP_pressure;BME280_temperature;BME280_humidity;BME280_pressure;Samples;Min_cycle;Max_cycle;Signal;HPM_P1;HPM_P2
2023/04/02 00:00:34;;;;;;;6.43;5.20;;;7.90;99.90;;;;;;5093082;28;20286;-58
2023/04/02 00:03:03;;;;;;;7.00;4.93;;;7.80;99.90;;;;;;5094160;28;20867;-58
2023/04/02 00:05:50;;;;;;;6.77;5.80;;;7.80;99.90;;;;;;5093805;28;20673;-58
2023/04/02 00:08:39;;;;;;;5.90;5.13;;;7.80;99.90;;;;;;5091753;28;20199;-58
2023/04/02 00:11:07;;;;;;;7.40;5.13;;;7.90;99.90;;;;;;5095549;28;20190;-60
2023/04/02 00:13:43;;;;;;;7.37;5.90;;;7.80;99.90;;;;;;5092955;28;20188;-58
2023/04/02 00:16:17;;;;;;;7.53;5.80;;;7.80;99.90;;;;;;5092080;28;20267;-59
2023/04/02 00:18:52;;;;;;;9.13;6.03;;;7.80;99.90;;;;;;5094042;28;20236;-58
2023/04/02 00:21:23;;;;;;;9.07;6.40;;;7.80;99.90;;;;;;5093077;28;20244;-59
2023/04/02 00:23:53;;;;;;;6.13;5.53;;;7.90;99.90;;;;;;5093027;28;20197;-58
2023/04/02 00:26:31;;;;;;;7.87;6.40;;;7.80;99.90;;;;;;5092843;28;20206;-58
2023/04/02 00:29:02;;;;;;;8.67;6.97;;;8.00;99.90;;;;;;5089968;28;20237;-58
2023/04/02 00:31:30;;;;;;;7.87;6.70;;;8.00;99.90;;;;;;5095044;28;20232;-58
2023/04/02 00:33:59;;;;;;;8.20;7.40;;;7.90;99.90;;;;;;5095094;28;20199;-58
2023/04/02 00:36:29;;;;;;;10.37;7.13;;;7.90;99.90;;;;;;5094067;28;20542;-58
2023/04/02 00:38:58;;;;;;;10.57;8.20;;;7.80;99.90;;;;;;5092413;28;20297;-59
2023/04/02 00:41:29;;;;;;;10.80;8.57;;;7.70;99.90;;;;;;5091980;28;20248;-59
2023/04/02 00:43:58;;;;;;;9.63;8.03;;;7.80;99.90;;;;;;5091597;28;20255;-60
2023/04/02 00:46:36;;;;;;;8.57;7.13;;;7.80;99.90;;;;;;5091922;28;20209;-59
2023/04/02 00:49:13;;;;;;;10.40;8.10;;;7.60;99.90;;;;;;5093986;28;20198;-59
2023/04/02 00:51:59;;;;;;;11.53;7.83;;;7.60;99.90;;;;;;5096792;28;20212;-60
2023/04/02 00:54:30;;;;;;;10.60;7.47;;;7.60;99.90;;;;;;5096285;28;20225;-60
2023/04/02 00:56:58;;;;;;;9.43;7.30;;;7.50;99.90;;;;;;5085502;28;20231;-61
2023/04/02 00:59:32;;;;;;;8.10;6.77;;;7.50;99.90;;;;;;5089961;28;20327;-59
2023/04/02 01:02:16;;;;;;;8.20;6.53;;;7.50;99.90;;;;;;5089240;28;20215;-59
2023/04/02 01:04:54;;;;;;;8.23;6.67;;;7.50;99.90;;;;;;5071914;28;20259;-60
2023/04/02 01:07:39;;;;;;;8.90;6.37;;;7.40;99.90;;;;;;5091254;28;20658;-60
2023/04/02 01:10:14;;;;;;;9.40;5.93;;;7.30;99.90;;;;;;5084538;28;20209;-60
2023/04/02 01:13:08;;;;;;;7.43;5.70;;;7.40;99.90;;;;;;5071877;28;20289;-59
2023/04/02 01:15:41;;;;;;;8.43;6.60;;;7.40;99.90;;;;;;5085892;28;20326;-63
2023/04/02 01:18:30;;;;;;;5.97;5.37;;;7.40;99.90;;;;;;5096663;28;20936;-60
2023/04/02 01:21:29;;;;;;;6.80;5.27;;;7.40;99.90;;;;;;5092470;28;20206;-59
2023/04/02 01:24:13;;;;;;;7.60;5.40;;;7.40;99.90;;;;;;5095897;28;20646;-60
2023/04/02 01:26:57;;;;;;;6.80;5.47;;;7.40;99.90;;;;;;5091903;27;20220;-60
2023/04/02 01:29:37;;;;;;;7.83;6.10;;;7.40;99.90;;;;;;5092277;28;20292;-60
2023/04/02 01:32:08;;;;;;;8.47;6.43;;;7.30;99.90;;;;;;5092436;28;20666;-61
2023/04/02 01:34:35;;;;;;;8.23;6.87;;;7.50;99.90;;;;;;5070075;28;20211;-60
2023/04/02 01:37:21;;;;;;;11.10;8.30;;;7.40;99.90;;;;;;5077692;28;20214;-59
2023/04/02 01:40:17;;;;;;;12.87;8.03;;;7.30;99.90;;;;;;5097764;28;20736;-59
2023/04/02 01:42:59;;;;;;;12.57;9.23;;;7.40;99.90;;;;;;5093487;27;20257;-59
2023/04/02 01:45:28;;;;;;;12.80;9.33;;;7.40;99.90;;;;;;5077072;28;20202;-60
2023/04/02 01:47:55;;;;;;;15.67;10.93;;;7.40;99.90;;;;;;5097249;28;20198;-60
2023/04/02 01:50:44;;;;;;;13.50;10.30;;;7.40;99.90;;;;;;5096130;28;20215;-60
2023/04/02 01:53:14;;;;;;;11.40;9.30;;;7.40;99.90;;;;;;5087204;28;20683;-59
2023/04/02 01:55:53;;;;;;;13.17;9.20;;;7.30;99.90;;;;;;5073437;28;20248;-59
2023/04/02 01:58:26;;;;;;;14.33;9.77;;;7.30;99.90;;;;;;5088277;28;20206;-60
2023/04/02 02:00:59;;;;;;;11.70;9.10;;;7.30;99.90;;;;;;5066833;28;20212;-59
2023/04/02 02:03:27;;;;;;;11.73;9.20;;;7.20;99.90;;;;;;5071146;28;20622;-59
2023/04/02 02:05:54;;;;;;;11.00;8.90;;;7.20;99.90;;;;;;5069005;28;20631;-64
2023/04/02 02:08:44;;;;;;;11.43;9.17;;;7.10;99.90;;;;;;5072098;28;20293;-59
2023/04/02 02:11:15;;;;;;;11.83;8.80;;;7.10;99.90;;;;;;5070450;28;20283;-59
2023/04/02 02:13:56;;;;;;;11.13;8.70;;;7.10;99.90;;;;;;5052202;28;20346;-59
2023/04/02 02:16:26;;;;;;;12.00;9.23;;;7.10;99.90;;;;;;5068527;28;20206;-60
2023/04/02 02:18:56;;;;;;;12.10;9.73;;;7.00;99.90;;;;;;5065771;28;20230;-59
2023/04/02 02:21:44;;;;;;;11.60;8.73;;;7.00;99.90;;;;;;5050934;28;20214;-58
2023/04/02 02:24:20;;;;;;;14.80;9.67;;;7.00;99.90;;;;;;5068969;28;20411;-59
2023/04/02 02:26:49;;;;;;;10.57;8.63;;;6.90;99.90;;;;;;5071328;28;20297;-60
2023/04/02 02:29:18;;;;;;;11.60;9.00;;;7.00;99.90;;;;;;5045422;28;20211;-58
2023/04/02 02:31:51;;;;;;;11.17;8.93;;;6.90;99.90;;;;;;5070969;28;20288;-58
2023/04/02 02:34:27;;;;;;;8.90;7.43;;;7.00;99.90;;;;;;5057335;28;20210;-59
2023/04/02 02:37:03;;;;;;;10.73;8.17;;;7.00;99.90;;;;;;5075306;28;20631;-58
2023/04/02 02:39:41;;;;;;;8.83;7.27;;;7.00;99.90;;;;;;5049891;28;20687;-59
2023/04/02 02:42:29;;;;;;;9.20;7.60;;;7.00;99.90;;;;;;5070980;28;20781;-59
2023/04/02 02:44:59;;;;;;;8.30;6.63;;;7.00;99.90;;;;;;5065114;28;21104;-59
2023/04/02 02:47:28;;;;;;;8.33;6.77;;;7.10;99.90;;;;;;5072188;28;20197;-59
2023/04/02 02:50:06;;;;;;;6.67;5.97;;;7.10;99.90;;;;;;5069382;28;20210;-60
2023/04/02 02:52:38;;;;;;;8.13;6.33;;;7.10;99.90;;;;;;5066224;28;20206;-59
2023/04/02 02:55:11;;;;;;;8.77;7.30;;;7.10;99.90;;;;;;5067652;28;20206;-59
2023/04/02 02:57:52;;;;;;;10.60;8.97;;;7.20;99.90;;;;;;5053701;28;20210;-59
2023/04/02 03:00:23;;;;;;;12.90;9.43;;;7.10;99.90;;;;;;5080318;28;20299;-64
2023/04/02 03:02:52;;;;;;;12.57;9.07;;;7.00;99.90;;;;;;5084057;28;20700;-60
2023/04/02 03:05:25;;;;;;;12.90;9.13;;;7.00;99.90;;;;;;5085501;28;20208;-59
2023/04/02 03:07:55;;;;;;;12.97;9.33;;;7.00;99.90;;;;;;5089238;27;20196;-59
2023/04/02 03:11:06;;;;;;;11.70;8.67;;;7.00;99.90;;;;;;5091041;27;20569;-59
2023/04/02 03:13:37;;;;;;;10.30;8.60;;;6.90;99.90;;;;;;5006600;28;20236;-59
2023/04/02 03:16:10;;;;;;;9.40;8.00;;;6.80;99.90;;;;;;5008911;28;20258;-66
2023/04/02 03:18:49;;;;;;;10.47;8.87;;;6.80;99.90;;;;;;5011432;28;20236;-59
2023/04/02 03:21:27;;;;;;;12.43;8.63;;;6.80;99.90;;;;;;5011165;28;20672;-60
2023/04/02 03:23:59;;;;;;;11.53;9.30;;;6.70;99.90;;;;;;5014844;28;20221;-59
2023/04/02 03:26:38;;;;;;;11.97;8.60;;;6.80;99.90;;;;;;5015883;28;20243;-59
2023/04/02 03:29:19;;;;;;;10.83;8.30;;;6.70;99.90;;;;;;4996215;28;20227;-59
2023/04/02 03:31:53;;;;;;;13.30;9.70;;;6.70;99.90;;;;;;5012955;28;20219;-59
2023/04/02 03:34:25;;;;;;;13.33;8.60;;;6.60;99.90;;;;;;5012356;28;20201;-59
2023/04/02 03:36:58;;;;;;;11.23;9.07;;;6.70;99.90;;;;;;5011022;28;20242;-59
2023/04/02 03:39:36;;;;;;;13.13;8.90;;;6.60;99.90;;;;;;5013828;28;20211;-59
2023/04/02 03:42:14;;;;;;;11.30;8.33;;;6.60;99.90;;;;;;5013502;28;20200;-59
2023/04/02 03:44:53;;;;;;;11.13;8.17;;;6.60;99.90;;;;;;5065488;27;20207;-60
2023/04/02 03:47:38;;;;;;;12.40;8.47;;;6.60;99.90;;;;;;5088767;28;20788;-59
2023/04/02 03:50:13;;;;;;;12.17;8.17;;;6.60;99.90;;;;;;5081286;28;20201;-59
2023/04/02 03:52:40;;;;;;;9.90;7.27;;;6.60;99.90;;;;;;5085639;28;20654;-59
2023/04/02 03:55:14;;;;;;;9.97;6.87;;;6.50;99.90;;;;;;5086854;28;20203;-59
2023/04/02 03:57:46;;;;;;;10.13;7.17;;;6.40;99.90;;;;;;5089035;28;20202;-59
2023/04/02 04:00:35;;;;;;;10.57;7.63;;;6.40;99.90;;;;;;5075129;28;20655;-59
2023/04/02 04:03:15;;;;;;;9.23;6.87;;;6.40;99.90;;;;;;5062073;28;20309;-59
2023/04/02 04:05:54;;;;;;;9.50;6.80;;;6.50;99.90;;;;;;5073227;28;20567;-60
2023/04/02 04:08:26;;;;;;;8.47;5.87;;;6.50;99.90;;;;;;5074926;28;20303;-64
2023/04/02 04:10:56;;;;;;;8.07;5.67;;;6.30;99.90;;;;;;5075929;28;20325;-59
2023/04/02 04:13:46;;;;;;;9.83;6.33;;;6.30;99.90;;;;;;5069894;28;20204;-59
2023/04/02 04:16:28;;;;;;;8.37;6.60;;;6.30;99.90;;;;;;5072080;28;21173;-59
2023/04/02 04:19:28;;;;;;;10.87;5.73;;;6.20;99.90;;;;;;5075622;28;20226;-61
2023/04/02 04:22:09;;;;;;;7.80;5.13;;;6.40;99.90;;;;;;5072969;28;20558;-59
2023/04/02 04:24:39;;;;;;;10.53;6.27;;;6.30;99.90;;;;;;5054581;28;20193;-59
2023/04/02 04:27:22;;;;;;;8.10;5.90;;;6.30;99.90;;;;;;5075043;28;20692;-58
2023/04/02 04:30:11;;;;;;;9.93;6.50;;;6.30;99.90;;;;;;5058622;28;20707;-58
2023/04/02 04:32:56;;;;;;;7.50;5.50;;;6.40;99.90;;;;;;5072690;28;20241;-58
2023/04/02 04:35:33;;;;;;;8.90;6.07;;;6.30;99.90;;;;;;5073847;28;20360;-58
2023/04/02 04:38:20;;;;;;;8.10;5.80;;;6.40;99.90;;;;;;5073762;28;20263;-58
2023/04/02 04:40:57;;;;;;;5.80;4.93;;;6.30;99.90;;;;;;5071730;28;20207;-58
2023/04/02 04:43:50;;;;;;;12.77;6.13;;;6.30;99.90;;;;;;5073194;28;20214;-61
2023/04/02 04:46:22;;;;;;;7.80;5.00;;;6.30;99.90;;;;;;5066003;28;20206;-58
2023/04/02 04:49:16;;;;;;;7.17;5.23;;;6.50;99.90;;;;;;5080066;28;20205;-60
2023/04/02 04:52:06;;;;;;;7.43;5.30;;;6.40;99.90;;;;;;5078021;28;20202;-58
2023/04/02 04:54:37;;;;;;;6.53;5.27;;;6.40;99.90;;;;;;5079050;28;20654;-58
2023/04/02 04:57:10;;;;;;;8.30;5.67;;;6.30;99.90;;;;;;5081204;28;20197;-59
2023/04/02 05:00:06;;;;;;;9.17;5.90;;;6.20;99.90;;;;;;5086019;28;20245;-58
2023/04/02 05:02:41;;;;;;;9.10;6.23;;;6.30;99.90;;;;;;5062433;28;20306;-58
2023/04/02 05:05:28;;;;;;;7.87;6.03;;;6.30;99.90;;;;;;5089522;28;20209;-58
2023/04/02 05:08:04;;;;;;;6.77;5.17;;;6.40;99.90;;;;;;5096702;28;20208;-59
2023/04/02 05:10:42;;;;;;;7.90;5.80;;;6.40;99.90;;;;;;5096173;28;20206;-59
2023/04/02 05:13:40;;;;;;;7.67;5.80;;;6.50;99.90;;;;;;5079371;28;20202;-59
2023/04/02 05:16:32;;;;;;;6.47;5.77;;;6.50;99.90;;;;;;5079495;28;20230;-59
2023/04/02 05:19:15;;;;;;;10.07;7.87;;;6.50;99.90;;;;;;5096931;28;20315;-59
2023/04/02 05:21:50;;;;;;;11.53;8.70;;;6.20;99.90;;;;;;5080215;28;20202;-59
2023/04/02 05:24:43;;;;;;;11.83;8.73;;;6.10;99.90;;;;;;5097411;28;20301;-58
2023/04/02 05:27:26;;;;;;;10.50;8.30;;;6.10;99.90;;;;;;5095120;28;20300;-60
2023/04/02 05:30:21;;;;;;;13.63;9.33;;;6.10;99.90;;;;;;5097399;28;20205;-59
2023/04/02 05:33:03;;;;;;;11.17;8.80;;;6.10;99.90;;;;;;5056657;28;20235;-59
2023/04/02 05:35:35;;;;;;;11.60;8.03;;;6.20;99.90;;;;;;5096570;28;20572;-59
2023/04/02 05:38:05;;;;;;;9.40;8.17;;;6.00;99.90;;;;;;5075769;28;20202;-58
2023/04/02 05:40:41;;;;;;;14.50;8.37;;;6.10;99.90;;;;;;5080043;28;20206;-59
2023/04/02 05:43:12;;;;;;;10.87;8.57;;;6.10;99.90;;;;;;5075919;28;21555;-59
2023/04/02 05:45:43;;;;;;;13.77;8.70;;;6.20;99.90;;;;;;5098059;28;20663;-59
2023/04/02 05:48:20;;;;;;;9.33;7.60;;;6.00;99.90;;;;;;5080834;28;20200;-59
2023/04/02 05:50:51;;;;;;;11.80;8.50;;;6.00;99.90;;;;;;5095570;27;20889;-59
2023/04/02 05:53:47;;;;;;;10.20;8.10;;;5.90;99.90;;;;;;5097196;28;20299;-59
2023/04/02 05:56:30;;;;;;;11.00;7.77;;;5.90;99.90;;;;;;5078247;28;20312;-59
2023/04/02 05:59:10;;;;;;;9.07;7.33;;;5.80;99.90;;;;;;5097363;28;20639;-59
2023/04/02 06:01:46;;;;;;;10.27;6.53;;;5.80;99.90;;;;;;5088674;28;20270;-59
2023/04/02 06:04:19;;;;;;;9.87;6.50;;;5.60;99.90;;;;;;5096484;28;20223;-59
2023/04/02 06:06:56;;;;;;;13.77;6.83;;;5.60;99.90;;;;;;5098105;28;20242;-60
2023/04/02 06:09:35;;;;;;;10.13;6.27;;;5.50;99.90;;;;;;5096654;28;20642;-59
2023/04/02 06:12:24;;;;;;;9.37;5.87;;;5.60;99.90;;;;;;5096701;28;20223;-58
2023/04/02 06:14:51;;;;;;;8.03;5.90;;;5.60;99.90;;;;;;5078366;28;20222;-59
2023/04/02 06:17:19;;;;;;;6.90;5.53;;;5.70;99.90;;;;;;5096576;28;20327;-59
2023/04/02 06:19:47;;;;;;;9.20;5.43;;;5.60;99.90;;;;;;5097849;28;20565;-59
2023/04/02 06:22:36;;;;;;;8.73;6.10;;;5.50;99.90;;;;;;5073326;28;20265;-59
2023/04/02 06:25:31;;;;;;;6.70;5.70;;;5.50;99.90;;;;;;5095449;28;20199;-59
2023/04/02 06:28:01;;;;;;;6.80;5.73;;;5.60;99.90;;;;;;5095096;28;20212;-59
2023/04/02 06:30:34;;;;;;;8.60;5.37;;;5.60;99.90;;;;;;5096052;28;20858;-59
2023/04/02 06:33:02;;;;;;;8.90;6.37;;;5.60;99.90;;;;;;5078363;28;20492;-59
2023/04/02 06:35:29;;;;;;;8.60;5.20;;;5.50;99.90;;;;;;5098121;28;20637;-59
2023/04/02 06:38:00;;;;;;;7.57;5.80;;;5.60;99.90;;;;;;5097128;28;20255;-60
2023/04/02 06:40:32;;;;;;;7.20;5.20;;;5.60;99.90;;;;;;5096179;28;20653;-59
2023/04/02 06:43:05;;;;;;;8.70;4.87;;;5.70;99.90;;;;;;5096986;28;20658;-59
2023/04/02 06:45:38;;;;;;;4.97;4.37;;;5.70;99.90;;;;;;5080782;28;20229;-59
2023/04/02 06:48:14;;;;;;;10.17;4.77;;;5.70;99.90;;;;;;4715044;28;10000912;-57
2023/04/02 06:50:55;;;;;;;8.47;4.37;;;5.60;99.90;;;;;;5088960;27;20333;-57
2023/04/02 06:53:31;;;;;;;5.37;3.40;;;5.50;99.90;;;;;;5096873;28;20206;-57
2023/04/02 06:56:02;;;;;;;4.37;3.77;;;5.40;99.90;;;;;;5096118;28;20283;-57
2023/04/02 06:58:28;;;;;;;5.73;3.37;;;5.40;99.90;;;;;;5096374;28;20276;-56
2023/04/02 07:00:56;;;;;;;5.70;3.70;;;5.40;99.90;;;;;;5090795;27;20231;-57
2023/04/02 07:03:28;;;;;;;5.07;3.47;;;5.60;99.90;;;;;;5091399;27;20229;-57
2023/04/02 07:05:56;;;;;;;5.60;3.43;;;5.80;99.90;;;;;;5084558;28;20187;-57
2023/04/02 07:08:23;;;;;;;5.33;2.80;;;5.60;99.90;;;;;;5092193;27;20222;-57
2023/04/02 07:10:50;;;;;;;3.80;2.40;;;5.50;99.90;;;;;;5088284;27;20271;-57
2023/04/02 07:13:21;;;;;;;3.30;2.23;;;5.30;99.90;;;;;;5068745;28;20221;-57
2023/04/02 07:15:51;;;;;;;3.30;2.47;;;5.30;99.90;;;;;;5091674;27;20209;-57
2023/04/02 07:18:28;;;;;;;5.43;2.20;;;5.20;99.90;;;;;;5089161;28;20239;-57
2023/04/02 07:20:55;;;;;;;3.13;2.00;;;5.20;99.90;;;;;;5093232;28;20285;-56
2023/04/02 07:23:22;;;;;;;4.10;2.27;;;5.30;99.90;;;;;;5086801;28;20222;-57
2023/04/02 07:25:51;;;;;;;4.37;2.30;;;5.40;99.90;;;;;;5087723;28;20247;-56
2023/04/02 07:28:18;;;;;;;3.93;2.07;;;5.30;99.90;;;;;;5086407;28;20754;-57
2023/04/02 07:30:49;;;;;;;6.30;2.13;;;5.20;99.90;;;;;;5069419;28;20217;-57
2023/04/02 07:33:19;;;;;;;2.90;1.60;;;5.20;99.90;;;;;;5083580;27;20199;-58
2023/04/02 07:35:47;;;;;;;5.10;2.10;;;5.40;99.90;;;;;;5077852;28;20285;-57
2023/04/02 07:38:14;;;;;;;3.90;1.93;;;5.40;99.90;;;;;;5083726;27;20208;-56
2023/04/02 07:40:40;;;;;;;4.93;2.07;;;5.30;99.90;;;;;;5082937;28;20243;-57
2023/04/02 07:43:08;;;;;;;4.90;2.00;;;5.20;99.90;;;;;;5081596;27;20910;-57
2023/04/02 07:45:35;;;;;;;4.40;1.93;;;5.30;99.90;;;;;;5081479;28;20200;-57
2023/04/02 07:48:10;;;;;;;3.07;1.97;;;5.10;99.90;;;;;;5084185;28;21882;-56
2023/04/02 07:50:37;;;;;;;3.23;2.00;;;5.30;99.90;;;;;;5089559;28;20190;-59
2023/04/02 07:53:05;;;;;;;6.27;1.97;;;5.20;99.90;;;;;;5091644;28;20250;-56
2023/04/02 07:55:32;;;;;;;4.77;1.70;;;5.30;99.90;;;;;;5090310;28;20201;-56
2023/04/02 07:58:00;;;;;;;4.50;2.07;;;5.10;99.90;;;;;;5089124;28;20189;-57
2023/04/02 08:00:27;;;;;;;3.53;1.93;;;5.10;99.90;;;;;;5091341;28;20612;-57
2023/04/02 08:02:55;;;;;;;3.23;1.80;;;5.20;99.90;;;;;;5076908;28;20202;-56
2023/04/02 08:05:22;;;;;;;3.77;2.20;;;5.20;99.90;;;;;;5092666;28;20225;-58
2023/04/02 08:07:54;;;;;;;2.70;1.77;;;5.30;99.90;;;;;;5092870;28;20294;-57
2023/04/02 08:10:21;;;;;;;2.13;1.90;;;5.20;99.90;;;;;;5077715;28;20232;-57
2023/04/02 08:12:49;;;;;;;10.80;1.90;;;5.20;99.90;;;;;;5089769;28;20208;-57
2023/04/02 08:15:16;;;;;;;3.73;2.27;;;5.20;99.90;;;;;;5070995;28;20212;-58
2023/04/02 08:17:44;;;;;;;2.77;1.90;;;5.20;99.90;;;;;;5093465;28;20258;-57
2023/04/02 08:20:20;;;;;;;2.23;1.70;;;5.10;99.90;;;;;;5095489;28;20652;-58
2023/04/02 08:22:49;;;;;;;4.10;2.20;;;5.10;99.90;;;;;;5096663;28;20258;-57
2023/04/02 08:25:16;;;;;;;1.93;1.50;;;5.10;99.90;;;;;;5094649;28;20300;-57
2023/04/02 08:27:46;;;;;;;2.67;1.80;;;5.20;99.90;;;;;;5095720;28;20201;-56
2023/04/02 08:30:14;;;;;;;1.90;1.60;;;5.50;99.90;;;;;;5094451;28;20240;-57
2023/04/02 08:32:41;;;;;;;3.27;1.70;;;5.40;99.90;;;;;;5077368;28;21237;-57
2023/04/02 08:35:10;;;;;;;3.90;1.77;;;5.30;99.90;;;;;;5070838;28;20222;-58
2023/04/02 08:37:37;;;;;;;3.40;2.00;;;5.30;99.90;;;;;;5092256;28;20551;-57
2023/04/02 08:40:08;;;;;;;2.63;2.17;;;5.40;99.90;;;;;;5089693;28;20205;-57
2023/04/02 08:42:45;;;;;;;3.27;2.43;;;5.50;99.90;;;;;;5089571;28;20350;-57
2023/04/02 08:45:20;;;;;;;2.13;1.80;;;5.40;99.90;;;;;;5082773;28;20210;-57
2023/04/02 08:48:05;;;;;;;2.00;1.63;;;5.30;99.90;;;;;;5073046;28;20202;-59
2023/04/02 08:50:38;;;;;;;2.40;1.87;;;5.20;99.90;;;;;;5087528;28;20198;-59
2023/04/02 08:53:14;;;;;;;3.27;2.13;;;5.20;99.90;;;;;;5089540;28;20226;-59
2023/04/02 08:56:04;;;;;;;2.63;2.07;;;5.20;99.90;;;;;;5071933;28;20226;-58
2023/04/02 08:58:43;;;;;;;6.67;2.33;;;5.30;99.90;;;;;;5074291;28;20210;-58
2023/04/02 09:01:30;;;;;;;3.70;2.40;;;5.30;99.90;;;;;;5091146;28;20645;-58
2023/04/02 09:03:58;;;;;;;2.87;2.20;;;5.10;99.90;;;;;;5072768;28;20548;-58
2023/04/02 09:06:27;;;;;;;5.87;2.47;;;5.10;99.90;;;;;;5091518;28;20235;-59
2023/04/02 09:08:56;;;;;;;5.63;2.50;;;5.30;99.90;;;;;;5088366;28;20560;-59
2023/04/02 09:11:40;;;;;;;4.13;2.10;;;5.50;99.90;;;;;;5093709;28;20869;-59
2023/04/02 09:14:17;;;;;;;2.50;2.23;;;5.50;99.90;;;;;;5087478;28;20212;-58
2023/04/02 09:16:52;;;;;;;3.03;2.30;;;5.50;99.90;;;;;;5073989;28;20748;-59
2023/04/02 09:19:22;;;;;;;4.70;2.67;;;5.40;99.90;;;;;;5076457;28;20305;-58
2023/04/02 09:22:07;;;;;;;5.47;2.57;;;5.30;99.90;;;;;;5092933;28;20218;-58
2023/04/02 09:24:36;;;;;;;3.37;2.47;;;5.20;99.90;;;;;;5091876;28;20634;-58
2023/04/02 09:27:10;;;;;;;4.23;2.50;;;5.20;99.90;;;;;;5071665;28;20295;-59
2023/04/02 09:29:46;;;;;;;3.90;1.90;;;5.30;99.90;;;;;;5095813;28;20617;-59
2023/04/02 09:32:33;;;;;;;5.57;3.10;;;5.30;99.90;;;;;;5093725;28;20656;-58
2023/04/02 09:35:11;;;;;;;6.10;2.40;;;5.50;99.90;;;;;;5082778;28;20199;-59
2023/04/02 09:38:17;;;;;;;5.10;2.80;;;5.50;99.90;;;;;;5098384;28;20224;-58
2023/04/02 09:40:57;;;;;;;6.67;2.50;;;5.30;99.90;;;;;;5096824;28;20201;-59
2023/04/02 09:43:44;;;;;;;5.23;2.73;;;5.50;99.90;;;;;;5099592;28;20233;-59
2023/04/02 09:46:23;;;;;;;5.83;2.70;;;5.50;99.90;;;;;;5095422;28;20239;-61
2023/04/02 09:48:59;;;;;;;5.03;2.40;;;5.50;99.90;;;;;;5095510;28;20199;-59
2023/04/02 09:51:30;;;;;;;5.30;2.43;;;5.50;99.90;;;;;;5096842;28;20189;-59
2023/04/02 09:54:03;;;;;;;5.90;2.60;;;5.50;99.90;;;;;;5096636;27;20271;-59
2023/04/02 09:56:57;;;;;;;3.43;2.10;;;5.60;99.90;;;;;;5080335;27;20267;-59
2023/04/02 09:59:24;;;;;;;3.87;2.30;;;5.40;99.90;;;;;;5096652;27;20241;-59
2023/04/02 10:01:53;;;;;;;7.73;2.30;;;5.60;99.90;;;;;;5095425;28;20233;-63
2023/04/02 10:04:35;;;;;;;6.40;2.83;;;5.50;99.90;;;;;;5090402;28;20227;-59
2023/04/02 10:07:03;;;;;;;4.77;2.87;;;5.60;99.90;;;;;;5088613;27;21118;-59
2023/04/02 10:09:32;;;;;;;5.87;2.70;;;5.50;99.90;;;;;;5095223;27;20205;-59
2023/04/02 10:12:01;;;;;;;3.93;2.77;;;5.50;99.90;;;;;;5092658;27;20213;-59
2023/04/02 10:14:42;;;;;;;2.33;1.73;;;5.60;99.90;;;;;;5091600;28;20209;-59
2023/04/02 10:17:22;;;;;;;2.60;1.90;;;5.60;99.90;;;;;;5089210;27;20199;-59
2023/04/02 10:19:59;;;;;;;3.43;2.40;;;5.70;99.90;;;;;;5081240;27;20209;-61
2023/04/02 10:22:27;;;;;;;3.03;1.80;;;5.90;99.90;;;;;;5093312;27;20257;-60
2023/04/02 10:24:54;;;;;;;4.97;2.50;;;6.00;99.90;;;;;;5085329;28;20210;-60
2023/04/02 10:27:41;;;;;;;3.20;2.10;;;5.80;99.90;;;;;;5089925;28;20203;-59
2023/04/02 10:30:17;;;;;;;2.87;2.37;;;5.60;99.90;;;;;;5082269;27;20323;-59
2023/04/02 10:32:44;;;;;;;3.83;2.57;;;5.60;99.90;;;;;;5080203;27;20208;-59
2023/04/02 10:35:40;;;;;;;4.33;2.53;;;5.80;99.90;;;;;;5087807;27;20273;-59
2023/04/02 10:38:25;;;;;;;2.67;2.47;;;5.80;99.90;;;;;;5090459;28;21130;-59
2023/04/02 10:40:54;;;;;;;4.87;2.30;;;5.70;99.90;;;;;;5088085;27;20209;-60
2023/04/02 10:43:59;;;;;;;2.67;1.87;;;6.00;99.90;;;;;;5086681;27;20897;-60
2023/04/02 10:46:54;;;;;;;3.03;2.73;;;6.10;99.90;;;;;;5087619;28;20205;-60
2023/04/02 10:49:34;;;;;;;4.40;2.20;;;6.10;99.90;;;;;;5071711;28;20237;-62
2023/04/02 10:52:12;;;;;;;3.30;2.27;;;6.10;99.90;;;;;;5084541;27;20208;-60
2023/04/02 10:54:48;;;;;;;2.53;2.33;;;6.00;99.90;;;;;;5090529;27;20211;-60
2023/04/02 10:57:29;;;;;;;6.30;2.83;;;6.00;99.90;;;;;;5091414;28;20205;-60
2023/04/02 11:00:10;;;;;;;5.00;1.90;;;6.00;99.90;;;;;;5078010;28;20301;-61
2023/04/02 11:02:53;;;;;;;7.13;2.50;;;6.10;99.90;;;;;;5069290;28;20210;-59
2023/04/02 11:05:43;;;;;;;4.37;2.60;;;6.10;99.90;;;;;;5067615;28;20206;-59
2023/04/02 11:08:19;;;;;;;7.37;2.40;;;6.10;99.90;;;;;;5049519;28;20261;-60
2023/04/02 11:10:52;;;;;;;3.60;2.30;;;6.10;99.90;;;;;;5052720;28;20293;-60
2023/04/02 11:13:28;;;;;;;5.30;3.07;;;6.00;99.90;;;;;;5062177;28;20197;-61
2023/04/02 11:15:55;;;;;;;3.70;2.43;;;6.00;99.90;;;;;;5068693;28;22019;-60
2023/04/02 11:18:34;;;;;;;2.20;1.80;;;6.00;99.90;;;;;;5068385;28;20233;-60
2023/04/02 11:21:25;;;;;;;7.40;2.10;;;6.10;99.90;;;;;;5047932;28;20261;-61
2023/04/02 11:24:00;;;;;;;3.23;1.93;;;6.10;99.90;;;;;;5058960;28;20359;-60
2023/04/02 11:26:36;;;;;;;4.13;2.03;;;5.90;99.90;;;;;;5063428;28;20219;-60
2023/04/02 11:29:40;;;;;;;4.47;1.97;;;6.10;99.90;;;;;;5045186;28;20637;-60
2023/04/02 11:32:19;;;;;;;3.00;2.07;;;6.30;99.90;;;;;;5032877;28;20321;-60
2023/04/02 11:34:50;;;;;;;3.03;1.80;;;6.30;99.90;;;;;;5054244;28;20200;-60
2023/04/02 11:37:41;;;;;;;2.80;1.93;;;6.20;99.90;;;;;;5068594;28;20204;-61
2023/04/02 11:40:12;;;;;;;2.83;2.10;;;6.50;99.90;;;;;;5068647;28;20261;-60
2023/04/02 11:42:40;;;;;;;3.97;2.10;;;6.50;99.90;;;;;;5065449;28;20201;-60
2023/04/02 11:45:22;;;;;;;5.07;2.47;;;6.30;99.90;;;;;;5065243;28;20883;-60
2023/04/02 11:48:02;;;;;;;3.30;1.63;;;6.30;99.90;;;;;;5067350;28;20274;-61
2023/04/02 11:50:34;;;;;;;5.70;1.90;;;6.50;99.90;;;;;;5069362;28;20242;-60
2023/04/02 11:53:20;;;;;;;3.80;2.10;;;6.80;99.90;;;;;;5066305;28;20584;-61
2023/04/02 11:55:57;;;;;;;3.30;2.00;;;6.70;99.90;;;;;;5070689;28;20730;-64
2023/04/02 11:58:58;;;;;;;5.40;2.40;;;6.90;99.90;;;;;;5067185;28;20206;-60
2023/04/02 12:02:19;;;;;;;2.90;2.10;;;7.80;99.90;;;;;;5070105;28;20291;-60
2023/04/02 12:05:09;;;;;;;5.40;2.10;;;8.40;99.90;;;;;;5013469;28;20228;-61
2023/04/02 12:08:04;;;;;;;4.37;2.20;;;9.20;99.90;;;;;;5053308;28;20248;-60
2023/04/02 12:10:49;;;;;;;3.70;2.00;;;9.60;99.90;;;;;;5036727;28;20245;-61
2023/04/02 12:13:44;;;;;;;3.17;1.80;;;9.50;99.90;;;;;;5062903;28;20209;-60
2023/04/02 12:16:12;;;;;;;2.13;1.70;;;9.10;99.90;;;;;;5053085;28;20210;-60
2023/04/02 12:18:45;;;;;;;3.57;1.90;;;9.40;99.90;;;;;;5065019;28;20231;-60
2023/04/02 12:21:17;;;;;;;3.80;1.83;;;10.10;99.90;;;;;;5067393;28;20196;-60
2023/04/02 12:23:47;;;;;;;3.43;1.97;;;10.20;99.90;;;;;;5060311;28;20205;-61
2023/04/02 12:26:41;;;;;;;2.10;1.90;;;9.50;99.90;;;;;;5064068;28;20645;-60
2023/04/02 12:29:25;;;;;;;3.97;2.13;;;9.60;99.90;;;;;;5060872;28;20811;-59
2023/04/02 12:31:56;;;;;;;2.57;1.97;;;9.80;99.90;;;;;;5065206;28;20209;-62
2023/04/02 12:34:26;;;;;;;3.70;2.03;;;9.50;99.90;;;;;;5062577;28;20654;-61
2023/04/02 12:37:03;;;;;;;2.83;2.13;;;9.00;99.90;;;;;;5060276;28;20313;-58
2023/04/02 12:39:34;;;;;;;4.13;2.67;;;8.90;99.90;;;;;;5062085;28;20640;-58
2023/04/02 12:42:01;;;;;;;4.03;2.07;;;8.70;99.90;;;;;;5065572;28;20636;-58
2023/04/02 12:44:29;;;;;;;3.17;2.00;;;9.00;99.90;;;;;;5056488;28;20255;-59
2023/04/02 12:46:57;;;;;;;2.87;2.20;;;9.10;99.90;;;;;;5053667;28;20210;-58
2023/04/02 12:49:40;;;;;;;5.10;2.43;;;9.60;99.90;;;;;;5067122;28;20193;-56
2023/04/02 12:52:11;;;;;;;3.07;2.10;;;9.80;99.90;;;;;;5068300;28;20199;-59
2023/04/02 12:54:53;;;;;;;5.73;2.30;;;10.30;99.90;;;;;;5071357;28;20213;-57
2023/04/02 12:57:28;;;;;;;3.50;2.10;;;9.90;99.90;;;;;;5070324;28;20209;-57
2023/04/02 12:59:58;;;;;;;2.07;1.90;;;10.40;99.90;;;;;;5071718;28;20235;-57
2023/04/02 13:02:29;;;;;;;3.43;1.83;;;10.60;99.90;;;;;;5053371;28;20252;-60
2023/04/02 13:05:00;;;;;;;3.93;2.10;;;11.20;99.90;;;;;;5073569;28;20214;-57
2023/04/02 13:07:32;;;;;;;4.20;1.77;;;11.40;99.90;;;;;;5076080;28;20234;-57
2023/04/02 13:10:02;;;;;;;2.23;2.00;;;11.10;99.90;;;;;;5074427;28;20659;-57
2023/04/02 13:12:40;;;;;;;2.17;1.90;;;11.40;99.90;;;;;;5065161;28;20199;-57
2023/04/02 13:15:15;;;;;;;3.90;2.20;;;11.40;99.90;;;;;;5079979;28;20630;-57
2023/04/02 13:18:00;;;;;;;2.43;1.70;;;11.10;99.90;;;;;;5073993;28;20226;-57
2023/04/02 13:20:30;;;;;;;3.30;2.50;;;11.40;99.90;;;;;;5075291;28;20227;-57
2023/04/02 13:22:59;;;;;;;3.53;1.73;;;11.30;99.90;;;;;;5076249;28;20202;-57
2023/04/02 13:25:33;;;;;;;5.50;2.17;;;11.60;99.90;;;;;;5070576;28;20373;-58
2023/04/02 13:28:00;;;;;;;3.20;1.80;;;11.20;99.90;;;;;;5077294;28;20285;-57
2023/04/02 13:30:28;;;;;;;2.73;1.47;;;11.00;99.90;;;;;;5074504;28;20203;-57
2023/04/02 13:32:55;;;;;;;4.60;2.00;;;11.80;99.90;;;;;;5070475;28;20257;-59
2023/04/02 13:35:22;;;;;;;4.07;2.27;;;11.90;99.90;;;;;;5074594;28;20201;-57
2023/04/02 13:37:49;;;;;;;3.40;2.00;;;11.80;99.90;;;;;;5070908;28;20201;-58
2023/04/02 13:40:18;;;;;;;3.93;1.80;;;11.10;99.90;;;;;;5072431;28;20294;-57